Time;durP1;ratioP1;P1;durP2;ratioP2;P2;SDS_P1;SDS_P2;PMS_P1;PMS_P2;Temp;Humidity;BMP_temperature;BMP_pressure;BME280_temperature;BME280_humidity;BME280_pressure;Samples;Min_cycle;Max_cycle;Signal;HPM_P1;HPM_P2
2021/12/19 07:50:54;;;;;;;132.40;59.53;;;3.60;99.90;;;;;;5070873;28;20363;-52
2021/12/19 07:53:20;;;;;;;120.15;59.25;;;3.80;99.90;;;;;;5070513;28;20581;-58
2021/12/19 07:55:45;;;;;;;111.93;56.45;;;4.00;99.90;;;;;;5070572;28;20096;-54
2021/12/19 07:58:11;;;;;;;98.72;52.35;;;4.30;99.90;;;;;;5070476;28;20028;-56
2021/12/19 08:00:37;;;;;;;91.55;49.88;;;4.50;99.90;;;;;;5070543;28;20079;-57
2021/12/19 08:03:02;;;;;;;95.68;53.13;;;4.70;99.90;;;;;;5070572;28;20459;-55
2021/12/19 08:05:28;;;;;;;105.13;54.97;;;5.10;99.90;;;;;;5070409;28;20095;-55
2021/12/19 08:07:59;;;;;;;122.25;63.38;;;5.60;99.90;;;;;;5070386;28;20024;-56
2021/12/19 08:12:51;;;;;;;118.13;63.55;;;6.70;99.90;;;;;;5070280;28;20036;-55
2021/12/19 08:15:17;;;;;;;171.88;89.80;;;6.50;99.90;;;;;;5070285;28;20474;-54
2021/12/19 08:17:42;;;;;;;147.00;78.47;;;6.30;99.90;;;;;;5070127;28;20028;-54
2021/12/19 08:20:09;;;;;;;132.50;72.55;;;6.10;99.90;;;;;;5070024;28;20032;-56
2021/12/19 08:22:36;;;;;;;130.35;69.45;;;6.20;99.90;;;;;;5069985;28;20497;-54
2021/12/19 08:25:03;;;;;;;124.70;66.72;;;6.50;99.90;;;;;;5069815;28;20424;-59
2021/12/19 08:27:30;;;;;;;125.20;68.30;;;6.70;99.90;;;;;;5069807;28;20021;-54
2021/12/19 08:29:55;;;;;;;114.43;63.75;;;7.00;99.90;;;;;;5070072;28;20025;-57
2021/12/19 08:32:22;;;;;;;133.15;73.50;;;7.20;99.90;;;;;;5069844;28;20359;-58
2021/12/19 08:34:48;;;;;;;126.72;73.68;;;7.10;99.90;;;;;;5069970;28;20021;-55
2021/12/19 08:37:15;;;;;;;143.52;80.15;;;6.90;99.90;;;;;;5069726;28;20455;-58
2021/12/19 08:39:45;;;;;;;154.05;85.55;;;6.90;99.90;;;;;;5068473;28;20410;-55
2021/12/19 08:42:11;;;;;;;131.77;77.57;;;7.80;99.90;;;;;;5069598;28;20479;-52
2021/12/19 08:44:38;;;;;;;129.85;74.22;;;8.70;99.90;;;;;;5069867;28;20390;-55
2021/12/19 08:47:04;;;;;;;138.65;79.90;;;8.50;99.90;;;;;;5069575;28;20429;-59
2021/12/19 08:49:30;;;;;;;132.32;77.35;;;8.10;99.90;;;;;;5069268;28;20052;-58
2021/12/19 08:51:56;;;;;;;125.40;74.72;;;8.60;99.90;;;;;;5069511;28;20021;-58
2021/12/19 08:54:22;;;;;;;125.57;74.35;;;9.40;99.90;;;;;;5069198;28;20035;-51
2021/12/19 08:56:49;;;;;;;116.00;70.35;;;9.70;99.90;;;;;;5069263;28;20048;-58
2021/12/19 08:59:15;;;;;;;125.13;76.90;;;9.60;99.90;;;;;;5069236;28;20025;-57
2021/12/19 09:01:41;;;;;;;124.20;76.85;;;9.40;99.90;;;;;;5059026;28;20070;-57
2021/12/19 09:04:06;;;;;;;111.55;68.30;;;9.30;99.90;;;;;;5056091;28;20063;-57
2021/12/19 09:06:33;;;;;;;116.60;71.05;;;9.40;99.90;;;;;;5056250;28;20031;-57
2021/12/19 09:08:59;;;;;;;111.13;67.15;;;9.40;99.90;;;;;;5055709;28;20033;-57
2021/12/19 09:11:25;;;;;;;164.57;97.40;;;9.30;99.90;;;;;;5056435;28;20066;-54
2021/12/19 09:13:50;;;;;;;118.85;73.68;;;9.30;98.00;;;;;;5056147;28;20532;-56
2021/12/19 09:16:16;;;;;;;130.05;78.60;;;9.10;99.90;;;;;;5055720;28;20025;-52
2021/12/19 09:18:42;;;;;;;126.70;77.93;;;9.20;99.90;;;;;;5055750;28;20025;-58
2021/12/19 09:21:08;;;;;;;136.55;81.10;;;9.60;99.90;;;;;;5055600;28;20021;-55
2021/12/19 09:23:34;;;;;;;141.63;85.72;;;10.00;99.90;;;;;;5055361;28;20030;-55
2021/12/19 09:26:01;;;;;;;135.18;81.72;;;10.00;96.60;;;;;;5055672;28;20433;-56
2021/12/19 09:28:26;;;;;;;135.70;80.40;;;9.90;96.50;;;;;;5055392;28;20032;-53
2021/12/19 09:30:52;;;;;;;124.68;73.82;;;10.10;96.30;;;;;;5055399;28;20470;-53
2021/12/19 09:33:18;;;;;;;105.32;62.50;;;10.30;90.20;;;;;;5055557;28;20021;-57
2021/12/19 09:35:43;;;;;;;91.38;56.13;;;10.50;87.80;;;;;;5055346;28;20489;-60
2021/12/19 09:38:09;;;;;;;82.20;50.40;;;10.70;90.80;;;;;;5055192;28;20521;-53
2021/12/19 09:40:38;;;;;;;88.22;56.00;;;10.90;77.90;;;;;;5055383;28;20032;-54
2021/12/19 09:43:09;;;;;;;85.60;54.63;;;10.90;69.30;;;;;;5055222;28;20025;-54
2021/12/19 09:45:36;;;;;;;107.40;63.75;;;11.00;77.50;;;;;;5055520;28;20404;-56
2021/12/19 09:48:02;;;;;;;98.65;60.92;;;11.20;62.00;;;;;;5055220;28;20089;-57
2021/12/19 09:50:29;;;;;;;97.80;61.08;;;11.20;64.70;;;;;;5054740;28;20049;-54
2021/12/19 09:52:55;;;;;;;91.80;56.83;;;11.30;64.40;;;;;;5054898;28;20393;-55
2021/12/19 09:55:22;;;;;;;88.30;54.05;;;11.50;59.30;;;;;;5055155;28;20021;-57
2021/12/19 09:57:52;;;;;;;76.00;46.63;;;11.60;57.80;;;;;;5054934;28;20024;-60
2021/12/19 10:00:18;;;;;;;67.10;45.35;;;11.70;58.90;;;;;;5054977;28;20079;-54
2021/12/19 10:02:44;;;;;;;83.60;51.05;;;11.80;63.10;;;;;;5055197;28;20045;-56
2021/12/19 10:05:25;;;;;;;65.90;44.92;;;12.00;57.70;;;;;;5054850;28;20021;-57
2021/12/19 10:08:00;;;;;;;76.50;47.75;;;12.00;59.20;;;;;;5054660;28;20033;-54
2021/12/19 10:10:59;;;;;;;71.43;47.97;;;12.00;57.90;;;;;;5054917;28;20036;-59
2021/12/19 10:13:51;;;;;;;80.20;52.50;;;12.10;57.20;;;;;;5053961;28;20037;-57
2021/12/19 10:16:28;;;;;;;87.47;57.20;;;12.30;56.00;;;;;;5054365;28;20491;-58
2021/12/19 10:18:59;;;;;;;96.65;60.67;;;12.40;56.20;;;;;;5054429;28;20135;-55
2021/12/19 10:21:27;;;;;;;96.78;59.28;;;12.50;55.90;;;;;;5054318;28;20021;-59
2021/12/19 10:23:59;;;;;;;109.65;65.10;;;12.40;53.10;;;;;;5053251;28;20033;-58
2021/12/19 10:26:39;;;;;;;113.70;69.15;;;12.30;54.60;;;;;;5054403;28;20142;-58
2021/12/19 10:29:05;;;;;;;97.95;59.47;;;12.30;56.90;;;;;;5054674;28;20025;-60
2021/12/19 10:31:32;;;;;;;101.32;61.40;;;12.40;54.40;;;;;;5054236;28;20075;-57
2021/12/19 10:33:58;;;;;;;91.85;57.90;;;12.30;54.00;;;;;;5054256;28;20029;-60
2021/12/19 10:36:24;;;;;;;96.07;57.45;;;12.40;58.80;;;;;;5053989;28;20489;-57
2021/12/19 10:38:52;;;;;;;104.72;63.00;;;12.70;57.70;;;;;;5054001;28;20029;-57
2021/12/19 10:41:22;;;;;;;94.97;59.78;;;12.80;54.00;;;;;;5054115;28;20017;-56
2021/12/19 10:43:59;;;;;;;91.32;56.80;;;12.80;53.60;;;;;;5054210;28;20025;-56
2021/12/19 10:46:30;;;;;;;89.68;54.58;;;12.90;56.30;;;;;;5053995;28;20036;-58
2021/12/19 10:48:58;;;;;;;79.57;53.10;;;13.10;52.50;;;;;;5053656;28;20041;-59
2021/12/19 10:51:24;;;;;;;79.35;49.47;;;12.90;54.60;;;;;;5053845;28;20120;-58
2021/12/19 10:53:55;;;;;;;87.40;53.47;;;13.10;57.30;;;;;;5053963;28;20021;-56
2021/12/19 10:56:29;;;;;;;78.47;49.45;;;13.40;53.90;;;;;;5053979;28;20024;-59
2021/12/19 10:59:07;;;;;;;76.43;48.17;;;13.70;54.20;;;;;;5053738;28;20043;-57
2021/12/19 11:01:37;;;;;;;70.07;46.40;;;13.70;50.60;;;;;;5053737;28;20460;-58
2021/12/19 11:04:02;;;;;;;67.80;44.50;;;13.70;51.60;;;;;;5053703;28;20028;-59
2021/12/19 11:06:46;;;;;;;73.13;47.50;;;13.80;50.20;;;;;;5053710;28;20082;-56
2021/12/19 11:09:28;;;;;;;75.82;45.38;;;13.80;52.10;;;;;;5053737;28;20478;-55
2021/12/19 11:11:58;;;;;;;68.50;44.47;;;14.00;50.60;;;;;;5053709;28;20029;-55
2021/12/19 11:14:28;;;;;;;68.10;44.13;;;14.10;51.10;;;;;;5053647;28;20021;-55
2021/12/19 11:16:57;;;;;;;86.95;55.67;;;14.30;49.70;;;;;;5053475;28;20025;-53
2021/12/19 11:19:24;;;;;;;116.22;68.30;;;14.30;47.50;;;;;;5053201;28;20033;-55
2021/12/19 11:21:50;;;;;;;89.90;58.15;;;14.10;49.60;;;;;;5053499;28;20035;-58
2021/12/19 11:24:19;;;;;;;106.97;64.43;;;13.80;49.60;;;;;;5053165;28;20024;-55
2021/12/19 11:26:49;;;;;;;79.30;50.30;;;13.60;50.70;;;;;;5053465;28;20413;-53
2021/12/19 11:29:16;;;;;;;81.85;50.58;;;13.50;50.10;;;;;;5053358;28;20053;-53
2021/12/19 11:31:46;;;;;;;79.20;53.03;;;13.40;50.10;;;;;;5053396;28;20025;-57
2021/12/19 11:34:31;;;;;;;70.28;48.67;;;13.50;50.50;;;;;;5053134;28;20028;-55
2021/12/19 11:36:59;;;;;;;66.60;44.33;;;13.80;52.10;;;;;;5053569;28;20078;-55
2021/12/19 11:39:37;;;;;;;66.20;43.65;;;14.10;51.80;;;;;;5053122;28;20021;-55
2021/12/19 11:42:28;;;;;;;60.80;40.95;;;14.20;48.30;;;;;;5053122;28;20529;-55
2021/12/19 11:48:00;;;;;;;58.75;39.25;;;14.50;49.10;;;;;;5053170;28;20021;-56
2021/12/19 11:50:30;;;;;;;155.27;86.93;;;14.60;47.90;;;;;;5052755;28;20067;-54
2021/12/19 11:52:57;;;;;;;205.90;110.90;;;14.40;48.60;;;;;;5053130;28;20025;-56
2021/12/19 11:55:33;;;;;;;210.50;116.35;;;14.00;51.30;;;;;;5053299;28;20063;-58
2021/12/19 11:58:08;;;;;;;189.68;102.72;;;13.70;52.90;;;;;;5053284;28;20044;-58
2021/12/19 12:00:40;;;;;;;182.30;99.43;;;13.30;52.30;;;;;;5053216;28;20029;-58
2021/12/19 12:03:12;;;;;;;159.55;90.03;;;12.90;52.90;;;;;;5052701;28;20031;-56
2021/12/19 12:05:50;;;;;;;148.88;87.07;;;12.50;56.20;;;;;;5052992;28;20109;-57
2021/12/19 12:08:25;;;;;;;197.25;109.82;;;12.30;58.60;;;;;;5053161;28;20027;-56
2021/12/19 12:10:58;;;;;;;183.40;103.55;;;12.10;60.40;;;;;;5053096;28;20518;-57
2021/12/19 12:13:41;;;;;;;138.43;82.45;;;12.00;63.30;;;;;;5053210;28;20025;-55
2021/12/19 12:16:30;;;;;;;167.65;91.25;;;11.80;67.20;;;;;;5053023;28;20033;-60
2021/12/19 12:18:58;;;;;;;177.93;93.93;;;11.80;72.20;;;;;;5052975;28;20037;-59
2021/12/19 12:21:31;;;;;;;124.93;71.05;;;11.70;75.40;;;;;;5052943;28;20034;-56
2021/12/19 12:24:00;;;;;;;153.25;81.88;;;11.60;72.30;;;;;;5052763;28;20108;-60
2021/12/19 12:26:50;;;;;;;127.50;73.05;;;11.40;85.00;;;;;;5052820;28;20039;-58
2021/12/19 12:29:17;;;;;;;174.50;96.40;;;11.20;81.90;;;;;;5052691;28;20029;-55
2021/12/19 12:31:47;;;;;;;203.32;109.30;;;11.00;88.40;;;;;;5052581;28;20033;-54
2021/12/19 12:34:16;;;;;;;169.27;96.78;;;11.10;85.90;;;;;;5052757;28;20486;-55
2021/12/19 12:36:43;;;;;;;138.75;83.72;;;11.10;82.80;;;;;;5054828;28;20017;-57
2021/12/19 12:39:18;;;;;;;158.05;90.65;;;11.00;89.80;;;;;;5056824;28;20128;-56
2021/12/19 12:44:15;;;;;;;154.05;90.35;;;10.90;90.20;;;;;;5056330;28;20104;-56
2021/12/19 12:46:44;;;;;;;178.38;101.32;;;10.90;88.70;;;;;;5056227;28;20017;-59
2021/12/19 12:49:14;;;;;;;128.15;75.15;;;11.00;87.60;;;;;;5056074;28;20410;-54
2021/12/19 12:51:49;;;;;;;151.45;87.72;;;10.80;90.50;;;;;;5056235;28;20039;-58
2021/12/19 12:54:34;;;;;;;127.65;75.40;;;10.70;92.70;;;;;;5056279;28;20071;-57
2021/12/19 12:57:03;;;;;;;183.10;105.43;;;10.60;94.40;;;;;;5056171;28;20471;-59
2021/12/19 12:59:33;;;;;;;161.13;96.32;;;10.70;92.10;;;;;;5055871;28;20036;-56
2021/12/19 13:02:14;;;;;;;163.82;98.32;;;10.90;92.80;;;;;;5055959;28;20021;-58
2021/12/19 13:04:48;;;;;;;140.38;86.22;;;10.90;91.70;;;;;;5055971;28;20032;-57
2021/12/19 13:07:15;;;;;;;113.93;71.30;;;10.80;92.60;;;;;;5056130;28;20424;-56
2021/12/19 13:09:56;;;;;;;149.02;89.47;;;10.70;94.60;;;;;;5055917;28;20024;-52
2021/12/19 13:12:29;;;;;;;130.52;79.20;;;10.50;95.40;;;;;;5055810;28;20471;-56
2021/12/19 13:14:59;;;;;;;128.90;77.03;;;10.40;96.20;;;;;;5055717;28;20017;-56
2021/12/19 13:17:33;;;;;;;141.25;84.20;;;10.20;97.50;;;;;;5055800;28;20532;-55
2021/12/19 13:20:08;;;;;;;134.45;82.10;;;10.10;99.20;;;;;;5055598;28;20036;-53
2021/12/19 13:22:47;;;;;;;161.15;99.75;;;10.00;98.40;;;;;;5055615;28;20108;-54
2021/12/19 13:25:18;;;;;;;139.82;87.80;;;9.90;98.20;;;;;;5055498;28;20082;-58
2021/12/19 13:27:47;;;;;;;128.60;82.82;;;9.90;99.90;;;;;;5055657;28;20021;-57
2021/12/19 13:30:24;;;;;;;140.55;84.75;;;9.90;99.60;;;;;;5055379;28;20021;-57
2021/12/19 13:33:09;;;;;;;126.10;89.45;;;10.10;99.00;;;;;;5055760;28;20051;-58
2021/12/19 13:35:50;;;;;;;137.40;88.15;;;10.10;98.70;;;;;;5055374;28;20452;-56
2021/12/19 13:38:21;;;;;;;153.43;89.10;;;9.80;99.90;;;;;;5055374;28;20025;-53
2021/12/19 13:40:53;;;;;;;145.45;82.45;;;9.80;99.90;;;;;;5055501;28;20033;-58
2021/12/19 13:43:21;;;;;;;119.78;66.53;;;9.70;99.90;;;;;;5055082;28;20382;-57
2021/12/19 13:45:52;;;;;;;121.32;71.53;;;9.70;99.90;;;;;;5055260;28;20021;-58
2021/12/19 13:48:33;;;;;;;123.57;69.18;;;9.70;99.90;;;;;;5054986;28;20070;-57
2021/12/19 13:51:09;;;;;;;117.60;71.47;;;9.50;99.90;;;;;;5055211;28;20045;-58
2021/12/19 13:53:39;;;;;;;102.85;58.10;;;9.40;99.90;;;;;;5054994;28;20511;-57
2021/12/19 13:56:06;;;;;;;216.45;105.05;;;9.50;99.90;;;;;;5055051;28;20021;-59
2021/12/19 13:58:43;;;;;;;256.13;133.38;;;9.40;99.90;;;;;;5054874;28;20053;-56
2021/12/19 14:01:11;;;;;;;188.23;100.47;;;9.50;99.90;;;;;;5054977;28;20086;-59
2021/12/19 14:03:43;;;;;;;283.00;143.50;;;9.50;99.90;;;;;;5054974;28;20075;-56
2021/12/19 14:06:11;;;;;;;309.27;163.03;;;9.50;99.90;;;;;;5054825;28;20462;-60
2021/12/19 14:08:37;;;;;;;290.90;153.77;;;9.40;99.90;;;;;;5054816;28;20100;-55
2021/12/19 14:11:09;;;;;;;278.50;160.35;;;9.40;99.90;;;;;;5054888;28;20025;-54
2021/12/19 14:13:37;;;;;;;261.92;149.63;;;9.40;99.90;;;;;;5054714;28;20113;-56
2021/12/19 14:16:10;;;;;;;244.35;137.90;;;9.20;99.90;;;;;;5054636;28;20467;-55
2021/12/19 14:18:43;;;;;;;199.82;115.78;;;8.90;99.90;;;;;;5054556;28;20479;-56
2021/12/19 14:21:38;;;;;;;221.70;127.15;;;8.80;99.90;;;;;;5054579;28;20032;-58
2021/12/19 14:24:31;;;;;;;213.93;121.68;;;8.70;99.90;;;;;;5054385;28;20418;-56
2021/12/19 14:27:29;;;;;;;267.40;133.98;;;8.60;99.90;;;;;;5054525;28;20029;-54
2021/12/19 14:29:55;;;;;;;287.48;137.07;;;8.60;99.90;;;;;;5054185;28;20029;-56
2021/12/19 14:32:34;;;;;;;296.15;146.50;;;8.50;99.90;;;;;;5054378;28;20027;-53
2021/12/19 14:35:01;;;;;;;268.75;132.98;;;8.40;99.90;;;;;;5054588;28;20052;-55
2021/12/19 14:37:33;;;;;;;316.25;154.85;;;8.30;99.90;;;;;;5054488;28;20024;-56
2021/12/19 14:40:14;;;;;;;274.80;131.95;;;8.20;99.90;;;;;;5052743;28;20083;-57
2021/12/19 14:42:48;;;;;;;256.00;124.65;;;8.00;99.90;;;;;;5053957;28;20040;-56
2021/12/19 14:45:18;;;;;;;;;;;8.00;99.90;;;;;;5053241;28;20027;-56
2021/12/19 14:47:58;;;;;;;375.67;167.65;;;8.10;99.90;;;;;;5054197;28;19930;-53
2021/12/19 14:50:48;;;;;;;355.92;165.23;;;8.00;99.90;;;;;;5053720;28;20099;-52
2021/12/19 14:53:22;;;;;;;257.33;117.55;;;8.10;99.90;;;;;;5053938;28;20048;-56
2021/12/19 14:55:49;;;;;;;195.50;93.38;;;8.30;99.90;;;;;;5053660;28;20025;-54
2021/12/19 14:58:16;;;;;;;248.95;119.43;;;8.40;99.90;;;;;;5053520;28;20017;-49
2021/12/19 15:00:48;;;;;;;291.02;132.57;;;8.60;99.90;;;;;;5053799;28;20025;-59
2021/12/19 15:03:14;;;;;;;474.40;226.63;;;8.90;99.90;;;;;;5053804;28;20032;-55
2021/12/19 15:05:42;;;;;;;512.20;250.52;;;8.90;99.90;;;;;;5053739;28;20029;-54
2021/12/19 15:08:14;;;;;;;528.95;263.88;;;8.70;99.90;;;;;;5053724;28;20060;-57
2021/12/19 15:10:41;;;;;;;630.28;309.92;;;8.70;99.90;;;;;;5053537;28;20060;-54
2021/12/19 15:13:06;;;;;;;578.28;298.73;;;8.70;99.90;;;;;;5053571;28;20024;-57
2021/12/19 15:15:33;;;;;;;569.53;302.15;;;8.50;99.90;;;;;;5053491;28;20021;-52
2021/12/19 15:17:58;;;;;;;785.30;411.20;;;8.50;99.90;;;;;;5053593;28;20103;-56
2021/12/19 15:20:24;;;;;;;725.03;388.65;;;8.30;99.90;;;;;;5053372;28;20109;-56
2021/12/19 15:22:50;;;;;;;906.72;465.58;;;8.10;99.90;;;;;;5053392;28;20053;-55
2021/12/19 15:25:16;;;;;;;882.67;445.90;;;8.20;99.90;;;;;;5053161;28;20024;-53
2021/12/19 15:27:45;;;;;;;856.65;451.27;;;8.20;99.90;;;;;;5053482;28;20056;-54
2021/12/19 15:30:13;;;;;;;865.15;456.45;;;8.10;99.90;;;;;;5053538;28;20017;-54
2021/12/19 15:32:39;;;;;;;717.10;377.23;;;7.90;99.90;;;;;;5053226;28;20383;-55
2021/12/19 15:35:07;;;;;;;730.42;380.02;;;7.80;99.90;;;;;;5053251;28;20023;-59
2021/12/19 15:37:33;;;;;;;954.75;489.40;;;7.70;99.90;;;;;;5053640;28;20139;-56
2021/12/19 15:39:59;;;;;;;713.05;388.35;;;7.60;99.90;;;;;;5053220;28;20034;-59
2021/12/19 15:42:25;;;;;;;602.60;331.98;;;7.60;99.90;;;;;;5053611;28;20029;-52
2021/12/19 15:44:51;;;;;;;725.50;369.00;;;7.80;99.90;;;;;;5053261;28;20025;-56
2021/12/19 15:47:17;;;;;;;725.60;376.92;;;8.00;99.90;;;;;;5053050;28;20074;-55
2021/12/19 15:49:43;;;;;;;875.47;437.00;;;7.90;99.90;;;;;;5052948;28;20053;-55
2021/12/19 15:52:09;;;;;;;748.33;377.88;;;7.70;99.90;;;;;;5053206;28;20025;-48
2021/12/19 15:54:35;;;;;;;776.88;385.90;;;7.70;99.90;;;;;;5052745;28;20017;-57
2021/12/19 15:57:02;;;;;;;844.35;437.63;;;7.70;99.90;;;;;;5053264;28;20075;-54
2021/12/19 15:59:29;;;;;;;717.95;379.48;;;7.60;99.90;;;;;;5053121;28;20025;-56
2021/12/19 16:01:56;;;;;;;568.47;308.23;;;7.40;99.90;;;;;;5052970;28;20383;-53
2021/12/19 16:04:21;;;;;;;457.30;246.15;;;7.60;99.90;;;;;;5053133;28;20025;-55
2021/12/19 16:06:47;;;;;;;578.38;341.25;;;7.70;99.90;;;;;;5053039;28;20024;-60
2021/12/19 16:09:13;;;;;;;553.00;320.73;;;7.70;99.90;;;;;;5052657;28;20094;-58
2021/12/19 16:11:39;;;;;;;516.97;299.33;;;7.40;99.90;;;;;;5055311;28;20017;-54
2021/12/19 16:14:04;;;;;;;493.30;290.85;;;7.40;99.90;;;;;;5057077;28;20071;-56
2021/12/19 16:16:31;;;;;;;451.88;260.88;;;7.30;99.90;;;;;;5057013;28;20021;-58
2021/12/19 16:18:56;;;;;;;414.77;230.23;;;7.20;99.90;;;;;;5056674;28;20053;-59
2021/12/19 16:21:22;;;;;;;405.23;218.18;;;7.30;99.90;;;;;;5057093;28;20059;-57
2021/12/19 16:23:48;;;;;;;412.23;220.05;;;7.30;99.90;;;;;;5056585;28;20086;-56
2021/12/19 16:26:14;;;;;;;401.33;214.88;;;7.30;99.90;;;;;;5056615;28;20028;-55
2021/12/19 16:28:39;;;;;;;341.88;185.60;;;7.20;99.90;;;;;;5056985;28;20502;-59
2021/12/19 16:31:06;;;;;;;349.13;180.00;;;7.30;99.90;;;;;;5056638;28;20021;-56
2021/12/19 16:33:32;;;;;;;277.20;150.30;;;7.50;99.90;;;;;;5056560;28;20017;-58
2021/12/19 16:35:57;;;;;;;228.13;127.63;;;7.50;99.90;;;;;;5056606;28;20021;-60
2021/12/19 16:38:23;;;;;;;198.77;109.32;;;7.40;99.90;;;;;;5056310;28;20024;-58
2021/12/19 16:40:50;;;;;;;172.40;96.47;;;7.40;99.90;;;;;;5056294;28;20032;-60
2021/12/19 16:43:35;;;;;;;173.45;92.15;;;7.50;99.90;;;;;;5056480;28;20104;-55
2021/12/19 16:46:05;;;;;;;204.60;110.40;;;7.60;99.90;;;;;;5056424;28;20032;-55
2021/12/19 16:48:32;;;;;;;173.38;97.90;;;7.70;99.90;;;;;;5056126;28;20028;-58
2021/12/19 16:51:00;;;;;;;158.90;88.15;;;7.60;99.90;;;;;;5056311;28;20483;-57
2021/12/19 16:53:27;;;;;;;147.50;82.80;;;7.60;99.90;;;;;;5056183;28;20033;-57
2021/12/19 16:55:53;;;;;;;151.30;80.68;;;7.60;99.90;;;;;;5056811;28;20117;-57
2021/12/19 16:58:19;;;;;;;133.02;73.85;;;7.60;99.90;;;;;;5056185;28;20536;-57
2021/12/19 17:00:46;;;;;;;143.50;75.50;;;7.60;99.90;;;;;;5056096;28;20231;-55
2021/12/19 17:03:12;;;;;;;122.57;68.72;;;7.70;99.90;;;;;;5056143;28;20025;-54
2021/12/19 17:05:38;;;;;;;145.30;76.57;;;7.70;99.90;;;;;;5056329;28;20028;-55
2021/12/19 17:08:04;;;;;;;219.90;118.07;;;7.60;99.90;;;;;;5055884;28;20441;-57
2021/12/19 17:10:30;;;;;;;171.02;91.60;;;7.60;99.90;;;;;;5056145;28;20055;-56
2021/12/19 17:12:59;;;;;;;194.05;102.40;;;7.50;99.90;;;;;;5056179;28;20550;-52
2021/12/19 17:15:26;;;;;;;192.23;102.80;;;7.50;99.90;;;;;;5055897;28;20074;-53
2021/12/19 17:17:52;;;;;;;230.35;116.65;;;7.50;99.90;;;;;;5055697;28;20049;-58
2021/12/19 17:20:20;;;;;;;225.43;119.97;;;7.50;99.90;;;;;;5055719;28;20087;-53
2021/12/19 17:22:46;;;;;;;211.38;113.00;;;7.20;99.90;;;;;;5055044;28;20494;-54
2021/12/19 17:25:13;;;;;;;196.63;104.68;;;7.10;99.90;;;;;;5055631;28;20459;-53
2021/12/19 17:27:43;;;;;;;201.68;108.65;;;7.10;99.90;;;;;;5055553;28;20471;-58
2021/12/19 17:30:10;;;;;;;232.68;123.97;;;7.10;99.90;;;;;;5055525;28;20063;-55
2021/12/19 17:32:36;;;;;;;199.57;110.18;;;6.90;99.90;;;;;;5055455;28;20021;-56
2021/12/19 17:35:04;;;;;;;198.98;105.63;;;6.80;99.90;;;;;;5055370;28;20104;-57
2021/12/19 17:37:30;;;;;;;191.55;99.97;;;6.90;99.90;;;;;;5055465;28;20466;-56
2021/12/19 17:40:06;;;;;;;186.63;97.07;;;7.00;99.90;;;;;;5055502;28;20037;-51
2021/12/19 17:42:32;;;;;;;233.60;124.82;;;7.00;99.90;;;;;;5055410;28;20052;-55
2021/12/19 17:44:58;;;;;;;268.92;136.95;;;7.00;99.90;;;;;;5055523;28;20071;-56
2021/12/19 17:47:24;;;;;;;258.48;139.85;;;6.90;99.90;;;;;;5055222;28;20033;-56
2021/12/19 17:49:50;;;;;;;222.55;119.32;;;6.80;99.90;;;;;;5054890;28;20045;-54
2021/12/19 17:52:15;;;;;;;243.20;126.20;;;6.70;99.90;;;;;;5055048;28;20021;-53
2021/12/19 17:54:41;;;;;;;234.27;120.97;;;6.80;99.90;;;;;;5055050;28;20074;-58
2021/12/19 17:57:07;;;;;;;248.85;125.95;;;6.70;99.90;;;;;;5055202;28;20032;-56
2021/12/19 17:59:33;;;;;;;327.80;165.07;;;6.70;99.90;;;;;;5054917;28;20032;-57
2021/12/19 18:01:59;;;;;;;249.43;130.65;;;6.70;99.90;;;;;;5054808;28;20478;-56
2021/12/19 18:04:28;;;;;;;253.90;133.68;;;6.60;99.90;;;;;;5054649;28;20096;-52
2021/12/19 18:06:54;;;;;;;259.20;132.50;;;6.60;99.90;;;;;;5055135;28;20033;-51
2021/12/19 18:09:21;;;;;;;235.15;121.75;;;6.60;99.90;;;;;;5054802;28;20064;-55
2021/12/19 18:11:46;;;;;;;233.57;119.28;;;6.60;99.90;;;;;;5054884;28;20032;-59
2021/12/19 18:14:13;;;;;;;255.48;125.97;;;6.50;99.90;;;;;;5054761;28;20024;-53
2021/12/19 18:16:38;;;;;;;252.45;124.38;;;6.60;99.90;;;;;;5054609;28;20049;-56
2021/12/19 18:19:05;;;;;;;238.82;121.60;;;6.50;99.90;;;;;;5054385;28;20052;-53
2021/12/19 18:21:31;;;;;;;291.67;149.95;;;6.60;99.90;;;;;;5054634;28;20021;-59
2021/12/19 18:24:00;;;;;;;269.25;135.32;;;6.50;99.90;;;;;;5054680;28;20112;-55
2021/12/19 18:26:29;;;;;;;264.38;133.73;;;6.40;99.90;;;;;;5054603;28;20025;-56
2021/12/19 18:28:59;;;;;;;223.32;116.95;;;6.30;99.90;;;;;;5054448;28;20090;-56
2021/12/19 18:31:28;;;;;;;253.90;130.25;;;6.20;99.90;;;;;;5054221;28;20040;-52
2021/12/19 18:34:00;;;;;;;318.00;154.43;;;6.30;99.90;;;;;;5053407;28;20021;-53
2021/12/19 18:36:28;;;;;;;502.90;293.30;;;6.40;99.90;;;;;;5054283;28;20021;-54
2021/12/19 18:38:53;;;;;;;479.67;279.95;;;6.20;99.90;;;;;;5054065;28;20025;-52
2021/12/19 18:41:31;;;;;;;463.95;264.48;;;5.90;99.90;;;;;;5054223;28;20024;-52
2021/12/19 18:44:06;;;;;;;486.08;288.65;;;5.90;99.90;;;;;;5054330;28;20032;-56
2021/12/19 18:46:42;;;;;;;487.00;292.45;;;5.90;99.90;;;;;;5054204;28;20024;-58
2021/12/19 18:54:54;;;;;;;443.02;249.45;;;5.40;99.90;;;;;;5062196;28;20044;-55
2021/12/19 18:57:22;;;;;;;432.08;247.85;;;5.60;99.90;;;;;;5053966;28;20021;-57
2021/12/19 18:59:48;;;;;;;414.83;230.38;;;5.50;99.90;;;;;;5053991;28;20036;-55
2021/12/19 19:02:28;;;;;;;430.75;240.40;;;5.40;99.90;;;;;;5053835;28;20017;-58
2021/12/19 19:05:01;;;;;;;469.20;260.63;;;5.50;99.90;;;;;;5053794;28;20463;-59
2021/12/19 19:07:27;;;;;;;576.45;334.75;;;5.70;99.90;;;;;;5053877;28;20021;-53
2021/12/19 19:09:54;;;;;;;518.92;290.08;;;5.80;99.90;;;;;;5053637;28;20511;-52
2021/12/19 19:12:20;;;;;;;512.22;284.83;;;5.90;99.90;;;;;;5053832;28;20049;-49
2021/12/19 19:14:47;;;;;;;495.38;263.52;;;5.90;99.90;;;;;;5053537;28;20025;-54
2021/12/19 19:17:15;;;;;;;447.83;241.63;;;5.90;99.90;;;;;;5053685;28;20146;-56
2021/12/19 19:19:42;;;;;;;447.63;238.27;;;5.80;99.90;;;;;;5053503;28;20055;-57
2021/12/19 19:22:09;;;;;;;331.38;166.10;;;5.80;99.90;;;;;;5053799;28;20067;-55
2021/12/19 19:24:36;;;;;;;300.65;154.90;;;5.50;99.90;;;;;;5053728;28;20021;-55
2021/12/19 19:27:01;;;;;;;271.20;140.80;;;5.50;99.90;;;;;;5053447;28;20021;-54
2021/12/19 19:29:29;;;;;;;380.45;174.05;;;5.50;99.90;;;;;;5053295;28;20021;-54
2021/12/19 19:31:55;;;;;;;468.40;215.30;;;5.50;99.90;;;;;;5053110;28;20068;-58
2021/12/19 19:34:22;;;;;;;570.60;283.33;;;5.40;99.90;;;;;;5053302;28;20021;-58
2021/12/19 19:36:51;;;;;;;593.15;311.60;;;5.30;99.90;;;;;;5053508;28;20021;-57
2021/12/19 19:50:07;;;;;;;443.92;219.43;;;5.10;99.90;;;;;;5052905;28;20068;-57
2021/12/19 19:52:32;;;;;;;464.02;237.43;;;5.10;99.90;;;;;;5052961;28;20021;-57
2021/12/19 19:54:58;;;;;;;485.45;285.35;;;5.10;99.90;;;;;;5053185;28;20036;-56
2021/12/19 19:57:24;;;;;;;534.95;324.08;;;4.90;99.90;;;;;;5053101;28;20028;-54
2021/12/19 19:59:49;;;;;;;456.42;256.65;;;4.70;99.90;;;;;;5052831;28;20078;-59
2021/12/19 20:02:16;;;;;;;427.48;237.38;;;4.70;99.90;;;;;;5052881;28;20056;-54
2021/12/19 20:04:41;;;;;;;420.88;228.38;;;4.70;99.90;;;;;;5053289;28;20025;-57
2021/12/19 20:07:08;;;;;;;534.95;309.02;;;4.80;99.90;;;;;;5053411;28;20483;-56
2021/12/19 20:09:35;;;;;;;471.50;257.20;;;4.80;99.90;;;;;;5052997;28;20025;-57
2021/12/19 20:12:04;;;;;;;456.25;241.48;;;4.50;99.90;;;;;;5053036;28;20017;-57
2021/12/19 20:14:29;;;;;;;433.33;225.00;;;4.50;99.90;;;;;;5052858;28;20118;-54
2021/12/19 20:17:03;;;;;;;452.80;241.43;;;4.50;99.90;;;;;;5052713;28;20068;-56
2021/12/19 20:19:29;;;;;;;;;;;4.40;99.90;;;;;;5053312;28;20021;-57
2021/12/19 20:21:55;;;;;;;415.70;205.98;;;4.50;99.90;;;;;;5052713;28;19932;-54
2021/12/19 20:24:22;;;;;;;436.83;219.25;;;4.60;99.90;;;;;;5052823;28;20049;-57
2021/12/19 20:26:48;;;;;;;385.58;190.25;;;4.70;99.90;;;;;;5052774;28;20032;-54
2021/12/19 20:29:14;;;;;;;365.23;177.10;;;4.70;99.90;;;;;;5052604;28;20166;-58
2021/12/19 20:31:41;;;;;;;365.98;180.55;;;4.70;99.90;;;;;;5052893;28;20017;-54
2021/12/19 20:34:08;;;;;;;405.38;200.75;;;4.70;99.90;;;;;;5052807;28;20485;-59
2021/12/19 20:36:35;;;;;;;480.88;263.45;;;4.80;99.90;;;;;;5052660;28;20021;-54
2021/12/19 20:39:04;;;;;;;401.95;201.75;;;4.70;99.90;;;;;;5052556;28;20040;-56
2021/12/19 20:41:31;;;;;;;432.92;232.80;;;4.50;99.90;;;;;;5052734;28;20021;-59
2021/12/19 20:43:59;;;;;;;378.25;184.45;;;4.50;99.90;;;;;;5052317;28;20029;-57
2021/12/19 20:46:26;;;;;;;350.42;174.10;;;4.40;99.90;;;;;;5052598;28;20029;-56